sensor_id;sensor_type;location;lat;lon;timestamp;P1;durP1;ratioP1;P2;durP2;ratioP2
71464;SDS011;59274;49.874;9.154;2023-05-20T00:01:31;2.43;;;1.37;;
71464;SDS011;59274;49.874;9.154;2023-05-20T00:03:57;3.20;;;1.30;;
71464;SDS011;59274;49.874;9.154;2023-05-20T00:06:25;3.80;;;1.50;;
71464;SDS011;59274;49.874;9.154;2023-05-20T00:08:50;2.73;;;1.50;;
71464;SDS011;59274;49.874;9.154;2023-05-20T00:11:16;3.85;;;1.42;;
71464;SDS011;59274;49.874;9.154;2023-05-20T00:13:41;3.43;;;1.50;;
71464;SDS011;59274;49.874;9.154;2023-05-20T00:16:06;4.77;;;1.60;;
71464;SDS011;59274;49.874;9.154;2023-05-20T00:18:32;2.77;;;1.60;;
71464;SDS011;59274;49.874;9.154;2023-05-20T00:20:57;3.73;;;1.90;;
71464;SDS011;59274;49.874;9.154;2023-05-20T00:23:23;2.55;;;1.25;;
71464;SDS011;59274;49.874;9.154;2023-05-20T00:25:48;2.73;;;1.20;;
71464;SDS011;59274;49.874;9.154;2023-05-20T00:28:14;5.45;;;1.92;;
71464;SDS011;59274;49.874;9.154;2023-05-20T00:30:40;3.28;;;1.40;;
71464;SDS011;59274;49.874;9.154;2023-05-20T00:33:06;3.45;;;1.75;;
71464;SDS011;59274;49.874;9.154;2023-05-20T00:35:31;4.27;;;1.80;;
71464;SDS011;59274;49.874;9.154;2023-05-20T00:37:57;3.75;;;1.83;;
71464;SDS011;59274;49.874;9.154;2023-05-20T00:40:23;3.53;;;1.30;;
71464;SDS011;59274;49.874;9.154;2023-05-20T00:42:49;2.92;;;1.42;;
71464;SDS011;59274;49.874;9.154;2023-05-20T00:45:15;2.33;;;1.00;;
71464;SDS011;59274;49.874;9.154;2023-05-20T00:47:40;3.40;;;1.70;;
71464;SDS011;59274;49.874;9.154;2023-05-20T00:50:07;2.47;;;1.20;;
71464;SDS011;59274;49.874;9.154;2023-05-20T00:52:34;2.47;;;1.40;;
71464;SDS011;59274;49.874;9.154;2023-05-20T00:55:01;3.15;;;1.70;;
71464;SDS011;59274;49.874;9.154;2023-05-20T00:57:27;3.08;;;1.50;;
71464;SDS011;59274;49.874;9.154;2023-05-20T00:59:53;5.32;;;1.52;;
71464;SDS011;59274;49.874;9.154;2023-05-20T01:02:19;3.33;;;1.27;;
71464;SDS011;59274;49.874;9.154;2023-05-20T01:04:45;3.38;;;1.38;;
71464;SDS011;59274;49.874;9.154;2023-05-20T01:07:12;2.95;;;1.20;;
71464;SDS011;59274;49.874;9.154;2023-05-20T01:09:40;3.33;;;1.40;;
71464;SDS011;59274;49.874;9.154;2023-05-20T01:15:04;4.20;;;1.70;;
71464;SDS011;59274;49.874;9.154;2023-05-20T01:17:33;3.25;;;1.60;;
71464;SDS011;59274;49.874;9.154;2023-05-20T01:20:03;3.88;;;1.40;;
71464;SDS011;59274;49.874;9.154;2023-05-20T01:22:31;2.53;;;1.10;;
71464;SDS011;59274;49.874;9.154;2023-05-20T01:24:57;3.40;;;1.58;;
71464;SDS011;59274;49.874;9.154;2023-05-20T01:27:22;3.90;;;1.80;;
71464;SDS011;59274;49.874;9.154;2023-05-20T01:29:48;2.08;;;1.33;;
71464;SDS011;59274;49.874;9.154;2023-05-20T01:32:19;3.50;;;1.58;;
71464;SDS011;59274;49.874;9.154;2023-05-20T01:35:07;3.30;;;1.48;;
71464;SDS011;59274;49.874;9.154;2023-05-20T01:37:35;3.13;;;1.40;;
71464;SDS011;59274;49.874;9.154;2023-05-20T01:40:04;3.13;;;1.48;;
71464;SDS011;59274;49.874;9.154;2023-05-20T01:42:32;2.37;;;1.30;;
71464;SDS011;59274;49.874;9.154;2023-05-20T01:44:59;4.40;;;1.60;;
71464;SDS011;59274;49.874;9.154;2023-05-20T01:47:24;4.53;;;1.63;;
71464;SDS011;59274;49.874;9.154;2023-05-20T01:49:50;3.13;;;1.50;;
71464;SDS011;59274;49.874;9.154;2023-05-20T01:52:18;3.92;;;1.65;;
71464;SDS011;59274;49.874;9.154;2023-05-20T01:54:45;3.97;;;1.42;;
71464;SDS011;59274;49.874;9.154;2023-05-20T01:57:17;2.20;;;1.03;;
71464;SDS011;59274;49.874;9.154;2023-05-20T01:59:44;3.42;;;1.60;;
71464;SDS011;59274;49.874;9.154;2023-05-20T02:02:09;2.87;;;1.43;;
71464;SDS011;59274;49.874;9.154;2023-05-20T02:04:34;3.20;;;1.20;;
71464;SDS011;59274;49.874;9.154;2023-05-20T02:07:00;3.07;;;1.73;;
71464;SDS011;59274;49.874;9.154;2023-05-20T02:09:25;3.10;;;1.50;;
71464;SDS011;59274;49.874;9.154;2023-05-20T02:11:51;3.60;;;1.58;;
71464;SDS011;59274;49.874;9.154;2023-05-20T02:14:16;3.05;;;1.48;;
71464;SDS011;59274;49.874;9.154;2023-05-20T02:16:42;2.73;;;1.57;;
71464;SDS011;59274;49.874;9.154;2023-05-20T02:19:07;4.60;;;1.90;;
71464;SDS011;59274;49.874;9.154;2023-05-20T02:21:37;2.38;;;1.50;;
71464;SDS011;59274;49.874;9.154;2023-05-20T02:24:06;3.90;;;1.70;;
71464;SDS011;59274;49.874;9.154;2023-05-20T02:26:32;3.27;;;1.50;;
71464;SDS011;59274;49.874;9.154;2023-05-20T02:28:58;3.25;;;1.42;;
71464;SDS011;59274;49.874;9.154;2023-05-20T02:31:24;2.83;;;1.52;;
71464;SDS011;59274;49.874;9.154;2023-05-20T02:33:50;3.47;;;1.97;;
71464;SDS011;59274;49.874;9.154;2023-05-20T02:36:15;3.00;;;1.58;;
71464;SDS011;59274;49.874;9.154;2023-05-20T02:38:41;2.73;;;1.07;;
71464;SDS011;59274;49.874;9.154;2023-05-20T02:41:07;2.60;;;1.48;;
71464;SDS011;59274;49.874;9.154;2023-05-20T02:43:33;4.17;;;1.83;;
71464;SDS011;59274;49.874;9.154;2023-05-20T02:46:00;4.18;;;1.60;;
71464;SDS011;59274;49.874;9.154;2023-05-20T02:48:26;4.15;;;1.80;;
71464;SDS011;59274;49.874;9.154;2023-05-20T02:50:51;3.13;;;1.70;;
71464;SDS011;59274;49.874;9.154;2023-05-20T02:53:17;3.23;;;1.73;;
71464;SDS011;59274;49.874;9.154;2023-05-20T02:55:44;3.73;;;1.50;;
71464;SDS011;59274;49.874;9.154;2023-05-20T02:58:11;4.07;;;1.45;;
71464;SDS011;59274;49.874;9.154;2023-05-20T03:00:37;4.18;;;1.80;;
71464;SDS011;59274;49.874;9.154;2023-05-20T03:03:07;3.38;;;1.60;;
71464;SDS011;59274;49.874;9.154;2023-05-20T03:05:37;3.78;;;1.70;;
71464;SDS011;59274;49.874;9.154;2023-05-20T03:08:07;3.93;;;1.60;;
71464;SDS011;59274;49.874;9.154;2023-05-20T03:10:37;2.70;;;1.27;;
71464;SDS011;59274;49.874;9.154;2023-05-20T03:13:04;3.75;;;2.08;;
71464;SDS011;59274;49.874;9.154;2023-05-20T03:15:35;2.27;;;1.33;;
71464;SDS011;59274;49.874;9.154;2023-05-20T03:18:03;3.42;;;1.60;;
71464;SDS011;59274;49.874;9.154;2023-05-20T03:20:30;3.35;;;1.65;;
71464;SDS011;59274;49.874;9.154;2023-05-20T03:23:01;3.50;;;1.60;;
71464;SDS011;59274;49.874;9.154;2023-05-20T03:25:26;2.95;;;1.50;;
71464;SDS011;59274;49.874;9.154;2023-05-20T03:27:52;2.93;;;1.50;;
71464;SDS011;59274;49.874;9.154;2023-05-20T03:30:18;5.03;;;1.88;;
71464;SDS011;59274;49.874;9.154;2023-05-20T03:32:44;2.67;;;1.30;;
71464;SDS011;59274;49.874;9.154;2023-05-20T03:35:09;3.33;;;1.70;;
71464;SDS011;59274;49.874;9.154;2023-05-20T03:37:35;4.10;;;1.67;;
71464;SDS011;59274;49.874;9.154;2023-05-20T03:40:01;4.13;;;1.73;;
71464;SDS011;59274;49.874;9.154;2023-05-20T03:42:30;3.63;;;1.63;;
71464;SDS011;59274;49.874;9.154;2023-05-20T03:44:56;3.60;;;1.60;;
71464;SDS011;59274;49.874;9.154;2023-05-20T03:47:21;3.80;;;1.53;;
71464;SDS011;59274;49.874;9.154;2023-05-20T03:49:46;3.53;;;2.00;;
71464;SDS011;59274;49.874;9.154;2023-05-20T03:52:12;5.00;;;1.80;;
71464;SDS011;59274;49.874;9.154;2023-05-20T03:54:37;4.10;;;1.85;;
71464;SDS011;59274;49.874;9.154;2023-05-20T03:57:03;4.07;;;1.70;;
71464;SDS011;59274;49.874;9.154;2023-05-20T03:59:28;3.17;;;1.60;;
71464;SDS011;59274;49.874;9.154;2023-05-20T04:01:54;4.80;;;1.90;;
71464;SDS011;59274;49.874;9.154;2023-05-20T04:04:21;3.40;;;1.73;;
71464;SDS011;59274;49.874;9.154;2023-05-20T04:06:46;3.07;;;1.80;;
71464;SDS011;59274;49.874;9.154;2023-05-20T04:09:11;3.97;;;1.85;;
71464;SDS011;59274;49.874;9.154;2023-05-20T04:11:37;4.50;;;1.60;;
71464;SDS011;59274;49.874;9.154;2023-05-20T04:14:03;2.83;;;1.70;;
71464;SDS011;59274;49.874;9.154;2023-05-20T04:16:28;2.90;;;1.80;;
71464;SDS011;59274;49.874;9.154;2023-05-20T04:18:54;3.50;;;1.60;;
71464;SDS011;59274;49.874;9.154;2023-05-20T04:21:20;4.25;;;2.00;;
71464;SDS011;59274;49.874;9.154;2023-05-20T04:23:45;4.20;;;2.10;;
71464;SDS011;59274;49.874;9.154;2023-05-20T04:26:11;3.25;;;1.77;;
71464;SDS011;59274;49.874;9.154;2023-05-20T04:28:37;3.60;;;1.63;;
71464;SDS011;59274;49.874;9.154;2023-05-20T04:31:03;2.55;;;1.70;;
71464;SDS011;59274;49.874;9.154;2023-05-20T04:33:29;3.78;;;1.60;;
71464;SDS011;59274;49.874;9.154;2023-05-20T04:35:57;3.67;;;1.77;;
71464;SDS011;59274;49.874;9.154;2023-05-20T04:38:23;3.92;;;1.80;;
71464;SDS011;59274;49.874;9.154;2023-05-20T04:40:56;4.60;;;1.90;;
71464;SDS011;59274;49.874;9.154;2023-05-20T04:43:26;4.10;;;1.70;;
71464;SDS011;59274;49.874;9.154;2023-05-20T04:45:58;2.97;;;1.52;;
71464;SDS011;59274;49.874;9.154;2023-05-20T04:48:25;4.25;;;1.90;;
71464;SDS011;59274;49.874;9.154;2023-05-20T04:50:51;5.15;;;2.22;;
71464;SDS011;59274;49.874;9.154;2023-05-20T04:53:18;5.67;;;2.20;;
71464;SDS011;59274;49.874;9.154;2023-05-20T04:55:44;4.40;;;1.98;;
71464;SDS011;59274;49.874;9.154;2023-05-20T04:58:10;5.05;;;1.70;;
71464;SDS011;59274;49.874;9.154;2023-05-20T05:00:45;3.78;;;1.80;;
71464;SDS011;59274;49.874;9.154;2023-05-20T05:03:10;3.30;;;1.57;;
71464;SDS011;59274;49.874;9.154;2023-05-20T05:05:37;3.67;;;1.70;;
71464;SDS011;59274;49.874;9.154;2023-05-20T05:08:03;4.78;;;1.90;;
71464;SDS011;59274;49.874;9.154;2023-05-20T05:10:30;4.30;;;2.08;;
71464;SDS011;59274;49.874;9.154;2023-05-20T05:12:55;4.13;;;2.17;;
71464;SDS011;59274;49.874;9.154;2023-05-20T05:15:21;4.18;;;2.10;;
71464;SDS011;59274;49.874;9.154;2023-05-20T05:17:46;4.43;;;2.05;;
71464;SDS011;59274;49.874;9.154;2023-05-20T05:20:12;5.57;;;2.03;;
71464;SDS011;59274;49.874;9.154;2023-05-20T05:22:37;4.70;;;1.97;;
71464;SDS011;59274;49.874;9.154;2023-05-20T05:25:04;3.75;;;1.83;;
71464;SDS011;59274;49.874;9.154;2023-05-20T05:27:30;5.13;;;2.42;;
71464;SDS011;59274;49.874;9.154;2023-05-20T05:29:56;5.17;;;2.03;;
71464;SDS011;59274;49.874;9.154;2023-05-20T05:32:22;3.53;;;1.67;;
71464;SDS011;59274;49.874;9.154;2023-05-20T05:34:47;4.87;;;1.87;;
71464;SDS011;59274;49.874;9.154;2023-05-20T05:37:13;4.23;;;1.80;;
71464;SDS011;59274;49.874;9.154;2023-05-20T05:39:38;4.90;;;1.90;;
71464;SDS011;59274;49.874;9.154;2023-05-20T05:42:03;4.90;;;2.00;;
71464;SDS011;59274;49.874;9.154;2023-05-20T05:44:29;5.03;;;2.10;;
71464;SDS011;59274;49.874;9.154;2023-05-20T05:46:55;4.07;;;2.10;;
71464;SDS011;59274;49.874;9.154;2023-05-20T05:49:20;6.68;;;2.20;;
71464;SDS011;59274;49.874;9.154;2023-05-20T05:51:46;5.53;;;2.00;;
71464;SDS011;59274;49.874;9.154;2023-05-20T05:54:11;4.73;;;2.13;;
71464;SDS011;59274;49.874;9.154;2023-05-20T05:56:36;8.40;;;2.30;;
71464;SDS011;59274;49.874;9.154;2023-05-20T05:59:02;4.77;;;2.10;;
71464;SDS011;59274;49.874;9.154;2023-05-20T06:01:28;4.20;;;2.00;;
71464;SDS011;59274;49.874;9.154;2023-05-20T06:03:57;4.07;;;2.00;;
71464;SDS011;59274;49.874;9.154;2023-05-20T06:06:22;4.07;;;2.13;;
71464;SDS011;59274;49.874;9.154;2023-05-20T06:08:48;7.33;;;2.70;;
71464;SDS011;59274;49.874;9.154;2023-05-20T06:11:13;6.30;;;2.50;;
71464;SDS011;59274;49.874;9.154;2023-05-20T06:13:38;6.30;;;2.20;;
71464;SDS011;59274;49.874;9.154;2023-05-20T06:16:04;4.83;;;2.07;;
71464;SDS011;59274;49.874;9.154;2023-05-20T06:18:29;3.90;;;2.17;;
71464;SDS011;59274;49.874;9.154;2023-05-20T06:20:58;5.00;;;2.57;;
71464;SDS011;59274;49.874;9.154;2023-05-20T06:23:24;8.23;;;2.47;;
71464;SDS011;59274;49.874;9.154;2023-05-20T06:25:50;6.65;;;2.42;;
71464;SDS011;59274;49.874;9.154;2023-05-20T06:28:15;3.90;;;2.10;;
71464;SDS011;59274;49.874;9.154;2023-05-20T06:30:41;5.33;;;2.33;;
71464;SDS011;59274;49.874;9.154;2023-05-20T06:33:07;5.35;;;2.20;;
71464;SDS011;59274;49.874;9.154;2023-05-20T06:35:32;4.90;;;2.07;;
71464;SDS011;59274;49.874;9.154;2023-05-20T06:38:00;6.07;;;2.90;;
71464;SDS011;59274;49.874;9.154;2023-05-20T06:40:26;6.27;;;2.97;;
71464;SDS011;59274;49.874;9.154;2023-05-20T06:42:52;4.22;;;2.15;;
71464;SDS011;59274;49.874;9.154;2023-05-20T06:45:17;4.53;;;2.33;;
71464;SDS011;59274;49.874;9.154;2023-05-20T06:47:43;4.40;;;2.20;;
71464;SDS011;59274;49.874;9.154;2023-05-20T06:50:09;4.40;;;1.83;;
71464;SDS011;59274;49.874;9.154;2023-05-20T06:52:35;4.68;;;2.03;;
71464;SDS011;59274;49.874;9.154;2023-05-20T06:55:01;5.30;;;2.40;;
71464;SDS011;59274;49.874;9.154;2023-05-20T06:57:27;5.40;;;2.05;;
71464;SDS011;59274;49.874;9.154;2023-05-20T06:59:53;5.87;;;2.30;;
71464;SDS011;59274;49.874;9.154;2023-05-20T07:02:19;4.67;;;2.10;;
71464;SDS011;59274;49.874;9.154;2023-05-20T07:04:45;4.97;;;1.92;;
71464;SDS011;59274;49.874;9.154;2023-05-20T07:07:11;4.60;;;2.13;;
71464;SDS011;59274;49.874;9.154;2023-05-20T07:09:36;5.72;;;2.30;;
71464;SDS011;59274;49.874;9.154;2023-05-20T07:12:01;5.25;;;2.55;;
71464;SDS011;59274;49.874;9.154;2023-05-20T07:14:27;4.50;;;2.30;;
71464;SDS011;59274;49.874;9.154;2023-05-20T07:16:53;4.82;;;2.63;;
71464;SDS011;59274;49.874;9.154;2023-05-20T07:19:18;6.88;;;2.45;;
71464;SDS011;59274;49.874;9.154;2023-05-20T07:21:43;5.47;;;2.40;;
71464;SDS011;59274;49.874;9.154;2023-05-20T07:24:09;4.83;;;2.47;;
71464;SDS011;59274;49.874;9.154;2023-05-20T07:26:34;5.43;;;2.70;;
71464;SDS011;59274;49.874;9.154;2023-05-20T07:29:01;5.25;;;2.70;;
71464;SDS011;59274;49.874;9.154;2023-05-20T07:31:27;5.47;;;2.95;;
71464;SDS011;59274;49.874;9.154;2023-05-20T07:33:53;5.07;;;2.70;;
71464;SDS011;59274;49.874;9.154;2023-05-20T07:36:18;6.90;;;2.87;;
71464;SDS011;59274;49.874;9.154;2023-05-20T07:38:44;6.03;;;2.60;;
71464;SDS011;59274;49.874;9.154;2023-05-20T07:41:09;5.43;;;2.50;;
71464;SDS011;59274;49.874;9.154;2023-05-20T07:43:35;5.65;;;2.67;;
71464;SDS011;59274;49.874;9.154;2023-05-20T07:46:01;5.38;;;2.33;;
71464;SDS011;59274;49.874;9.154;2023-05-20T07:48:26;5.80;;;2.87;;
71464;SDS011;59274;49.874;9.154;2023-05-20T07:50:52;4.50;;;2.20;;
71464;SDS011;59274;49.874;9.154;2023-05-20T07:53:17;4.93;;;2.27;;
71464;SDS011;59274;49.874;9.154;2023-05-20T07:55:43;6.33;;;2.33;;
71464;SDS011;59274;49.874;9.154;2023-05-20T07:58:09;6.77;;;3.00;;
71464;SDS011;59274;49.874;9.154;2023-05-20T08:00:34;5.35;;;2.30;;
71464;SDS011;59274;49.874;9.154;2023-05-20T08:03:00;6.68;;;2.75;;
71464;SDS011;59274;49.874;9.154;2023-05-20T08:05:25;4.93;;;2.28;;
71464;SDS011;59274;49.874;9.154;2023-05-20T08:07:51;5.20;;;2.67;;
71464;SDS011;59274;49.874;9.154;2023-05-20T08:10:16;6.77;;;3.00;;
71464;SDS011;59274;49.874;9.154;2023-05-20T08:12:41;7.23;;;3.23;;
71464;SDS011;59274;49.874;9.154;2023-05-20T08:15:07;5.68;;;2.80;;
71464;SDS011;59274;49.874;9.154;2023-05-20T08:17:33;5.40;;;2.90;;
71464;SDS011;59274;49.874;9.154;2023-05-20T08:19:59;5.47;;;2.75;;
71464;SDS011;59274;49.874;9.154;2023-05-20T08:22:25;6.80;;;2.72;;
71464;SDS011;59274;49.874;9.154;2023-05-20T08:24:51;6.37;;;2.70;;
71464;SDS011;59274;49.874;9.154;2023-05-20T08:27:16;5.57;;;2.90;;
71464;SDS011;59274;49.874;9.154;2023-05-20T08:29:43;4.90;;;2.35;;
71464;SDS011;59274;49.874;9.154;2023-05-20T08:32:09;5.40;;;2.60;;
71464;SDS011;59274;49.874;9.154;2023-05-20T08:34:35;6.25;;;2.63;;
71464;SDS011;59274;49.874;9.154;2023-05-20T08:37:01;5.95;;;2.80;;
71464;SDS011;59274;49.874;9.154;2023-05-20T08:39:26;5.77;;;2.83;;
71464;SDS011;59274;49.874;9.154;2023-05-20T08:41:52;6.53;;;3.05;;
71464;SDS011;59274;49.874;9.154;2023-05-20T08:44:18;6.13;;;2.97;;
71464;SDS011;59274;49.874;9.154;2023-05-20T08:46:45;6.40;;;3.08;;
71464;SDS011;59274;49.874;9.154;2023-05-20T08:49:12;7.20;;;2.93;;
71464;SDS011;59274;49.874;9.154;2023-05-20T08:51:37;5.28;;;2.65;;
71464;SDS011;59274;49.874;9.154;2023-05-20T08:54:03;6.30;;;2.70;;
71464;SDS011;59274;49.874;9.154;2023-05-20T08:56:30;6.07;;;2.75;;
71464;SDS011;59274;49.874;9.154;2023-05-20T08:58:56;8.93;;;3.30;;
71464;SDS011;59274;49.874;9.154;2023-05-20T09:01:25;6.33;;;2.97;;
71464;SDS011;59274;49.874;9.154;2023-05-20T09:03:50;6.07;;;2.90;;
71464;SDS011;59274;49.874;9.154;2023-05-20T09:06:17;5.32;;;2.60;;
71464;SDS011;59274;49.874;9.154;2023-05-20T09:08:47;6.72;;;3.15;;
71464;SDS011;59274;49.874;9.154;2023-05-20T09:11:14;5.68;;;2.63;;
71464;SDS011;59274;49.874;9.154;2023-05-20T09:13:39;5.23;;;2.40;;
71464;SDS011;59274;49.874;9.154;2023-05-20T09:16:05;5.93;;;2.63;;
71464;SDS011;59274;49.874;9.154;2023-05-20T09:18:30;6.57;;;3.22;;
71464;SDS011;59274;49.874;9.154;2023-05-20T09:20:57;9.90;;;3.92;;
71464;SDS011;59274;49.874;9.154;2023-05-20T09:23:22;7.20;;;3.30;;
71464;SDS011;59274;49.874;9.154;2023-05-20T09:25:49;5.97;;;2.90;;
71464;SDS011;59274;49.874;9.154;2023-05-20T09:28:17;5.32;;;2.40;;
71464;SDS011;59274;49.874;9.154;2023-05-20T09:30:43;5.85;;;2.72;;
71464;SDS011;59274;49.874;9.154;2023-05-20T09:33:10;7.05;;;2.90;;
71464;SDS011;59274;49.874;9.154;2023-05-20T09:35:36;7.32;;;2.80;;
71464;SDS011;59274;49.874;9.154;2023-05-20T09:38:02;6.07;;;2.67;;
71464;SDS011;59274;49.874;9.154;2023-05-20T09:40:29;6.70;;;2.83;;
71464;SDS011;59274;49.874;9.154;2023-05-20T09:43:01;5.40;;;2.63;;
71464;SDS011;59274;49.874;9.154;2023-05-20T09:45:28;7.68;;;3.20;;
71464;SDS011;59274;49.874;9.154;2023-05-20T09:47:54;5.93;;;2.55;;
71464;SDS011;59274;49.874;9.154;2023-05-20T09:50:21;6.88;;;3.15;;
71464;SDS011;59274;49.874;9.154;2023-05-20T09:52:49;6.70;;;3.20;;
71464;SDS011;59274;49.874;9.154;2023-05-20T09:55:16;5.90;;;2.70;;
71464;SDS011;59274;49.874;9.154;2023-05-20T09:57:43;5.18;;;2.42;;
71464;SDS011;59274;49.874;9.154;2023-05-20T10:00:09;6.43;;;2.78;;
71464;SDS011;59274;49.874;9.154;2023-05-20T10:02:37;7.88;;;3.00;;
71464;SDS011;59274;49.874;9.154;2023-05-20T10:05:06;5.70;;;2.60;;
71464;SDS011;59274;49.874;9.154;2023-05-20T10:10:35;8.63;;;3.08;;
71464;SDS011;59274;49.874;9.154;2023-05-20T10:15:59;6.70;;;3.25;;
71464;SDS011;59274;49.874;9.154;2023-05-20T10:21:21;7.03;;;2.78;;
71464;SDS011;59274;49.874;9.154;2023-05-20T10:23:48;6.63;;;2.75;;
71464;SDS011;59274;49.874;9.154;2023-05-20T10:26:15;6.35;;;2.72;;
71464;SDS011;59274;49.874;9.154;2023-05-20T10:28:41;9.07;;;3.60;;
71464;SDS011;59274;49.874;9.154;2023-05-20T10:31:16;5.50;;;2.75;;
71464;SDS011;59274;49.874;9.154;2023-05-20T10:33:45;5.55;;;3.03;;
71464;SDS011;59274;49.874;9.154;2023-05-20T10:36:32;5.63;;;3.13;;
71464;SDS011;59274;49.874;9.154;2023-05-20T10:38:58;6.15;;;3.25;;
71464;SDS011;59274;49.874;9.154;2023-05-20T10:41:27;6.45;;;2.90;;
71464;SDS011;59274;49.874;9.154;2023-05-20T10:44:02;5.03;;;2.67;;
71464;SDS011;59274;49.874;9.154;2023-05-20T10:46:29;6.00;;;3.00;;
71464;SDS011;59274;49.874;9.154;2023-05-20T10:48:56;6.53;;;3.28;;
71464;SDS011;59274;49.874;9.154;2023-05-20T10:51:22;6.10;;;3.40;;
71464;SDS011;59274;49.874;9.154;2023-05-20T10:53:50;6.53;;;3.33;;
71464;SDS011;59274;49.874;9.154;2023-05-20T10:56:18;6.78;;;3.10;;
71464;SDS011;59274;49.874;9.154;2023-05-20T10:58:45;6.50;;;2.88;;
71464;SDS011;59274;49.874;9.154;2023-05-20T11:01:12;7.18;;;3.25;;
71464;SDS011;59274;49.874;9.154;2023-05-20T11:03:39;7.63;;;3.55;;
71464;SDS011;59274;49.874;9.154;2023-05-20T11:06:11;6.32;;;3.80;;
71464;SDS011;59274;49.874;9.154;2023-05-20T11:08:41;7.43;;;3.45;;
71464;SDS011;59274;49.874;9.154;2023-05-20T11:11:07;6.85;;;3.20;;
71464;SDS011;59274;49.874;9.154;2023-05-20T11:13:32;7.15;;;3.22;;
71464;SDS011;59274;49.874;9.154;2023-05-20T11:15:59;6.07;;;3.30;;
71464;SDS011;59274;49.874;9.154;2023-05-20T11:18:28;6.82;;;2.90;;
71464;SDS011;59274;49.874;9.154;2023-05-20T11:20:57;7.03;;;3.42;;
71464;SDS011;59274;49.874;9.154;2023-05-20T11:23:25;6.43;;;3.17;;
71464;SDS011;59274;49.874;9.154;2023-05-20T11:25:54;10.88;;;3.72;;
71464;SDS011;59274;49.874;9.154;2023-05-20T11:28:21;5.97;;;3.15;;
71464;SDS011;59274;49.874;9.154;2023-05-20T11:30:48;7.15;;;2.78;;
71464;SDS011;59274;49.874;9.154;2023-05-20T11:33:15;6.88;;;3.60;;
71464;SDS011;59274;49.874;9.154;2023-05-20T11:35:51;6.20;;;3.15;;
71464;SDS011;59274;49.874;9.154;2023-05-20T11:38:18;5.78;;;2.60;;
71464;SDS011;59274;49.874;9.154;2023-05-20T11:40:45;5.97;;;2.90;;
71464;SDS011;59274;49.874;9.154;2023-05-20T11:43:12;6.05;;;3.13;;
71464;SDS011;59274;49.874;9.154;2023-05-20T11:45:39;6.53;;;3.40;;
71464;SDS011;59274;49.874;9.154;2023-05-20T11:48:17;6.05;;;3.22;;
71464;SDS011;59274;49.874;9.154;2023-05-20T11:50:44;5.93;;;2.88;;
71464;SDS011;59274;49.874;9.154;2023-05-20T11:53:13;7.30;;;3.03;;
71464;SDS011;59274;49.874;9.154;2023-05-20T11:55:43;6.50;;;3.40;;
71464;SDS011;59274;49.874;9.154;2023-05-20T11:58:29;6.05;;;3.15;;
71464;SDS011;59274;49.874;9.154;2023-05-20T12:00:55;6.57;;;2.90;;
71464;SDS011;59274;49.874;9.154;2023-05-20T12:03:21;8.43;;;3.08;;
71464;SDS011;59274;49.874;9.154;2023-05-20T12:05:46;6.33;;;3.30;;
71464;SDS011;59274;49.874;9.154;2023-05-20T12:08:13;7.30;;;3.00;;
71464;SDS011;59274;49.874;9.154;2023-05-20T12:10:39;6.03;;;3.08;;
71464;SDS011;59274;49.874;9.154;2023-05-20T12:13:04;6.37;;;2.70;;
71464;SDS011;59274;49.874;9.154;2023-05-20T12:15:36;6.40;;;2.78;;
71464;SDS011;59274;49.874;9.154;2023-05-20T12:18:01;6.40;;;3.10;;
71464;SDS011;59274;49.874;9.154;2023-05-20T12:20:27;6.45;;;3.05;;
71464;SDS011;59274;49.874;9.154;2023-05-20T12:22:55;9.05;;;3.40;;
71464;SDS011;59274;49.874;9.154;2023-05-20T12:25:20;6.77;;;3.43;;
71464;SDS011;59274;49.874;9.154;2023-05-20T12:27:46;6.80;;;3.53;;
71464;SDS011;59274;49.874;9.154;2023-05-20T12:30:15;7.65;;;3.92;;
71464;SDS011;59274;49.874;9.154;2023-05-20T12:32:45;5.63;;;2.80;;
71464;SDS011;59274;49.874;9.154;2023-05-20T12:35:12;7.00;;;3.08;;
71464;SDS011;59274;49.874;9.154;2023-05-20T12:37:38;5.77;;;3.40;;
71464;SDS011;59274;49.874;9.154;2023-05-20T12:40:05;7.07;;;2.90;;
71464;SDS011;59274;49.874;9.154;2023-05-20T12:42:38;7.07;;;3.42;;
71464;SDS011;59274;49.874;9.154;2023-05-20T12:45:05;5.85;;;3.08;;
71464;SDS011;59274;49.874;9.154;2023-05-20T12:47:32;8.77;;;3.20;;
71464;SDS011;59274;49.874;9.154;2023-05-20T12:49:58;7.40;;;3.08;;
71464;SDS011;59274;49.874;9.154;2023-05-20T12:52:24;5.30;;;2.83;;
71464;SDS011;59274;49.874;9.154;2023-05-20T12:54:52;6.32;;;2.90;;
71464;SDS011;59274;49.874;9.154;2023-05-20T12:57:17;7.68;;;3.28;;
71464;SDS011;59274;49.874;9.154;2023-05-20T12:59:44;6.47;;;3.08;;
71464;SDS011;59274;49.874;9.154;2023-05-20T13:02:10;7.93;;;3.08;;
71464;SDS011;59274;49.874;9.154;2023-05-20T13:04:35;6.53;;;3.30;;
71464;SDS011;59274;49.874;9.154;2023-05-20T13:07:01;6.20;;;3.23;;
71464;SDS011;59274;49.874;9.154;2023-05-20T13:09:27;7.80;;;3.50;;
71464;SDS011;59274;49.874;9.154;2023-05-20T13:11:53;8.05;;;3.45;;
71464;SDS011;59274;49.874;9.154;2023-05-20T13:14:18;6.78;;;3.13;;
71464;SDS011;59274;49.874;9.154;2023-05-20T13:16:44;7.93;;;3.40;;
71464;SDS011;59274;49.874;9.154;2023-05-20T13:19:09;6.90;;;3.30;;
71464;SDS011;59274;49.874;9.154;2023-05-20T13:21:35;6.93;;;3.28;;
71464;SDS011;59274;49.874;9.154;2023-05-20T13:24:00;8.17;;;3.50;;
71464;SDS011;59274;49.874;9.154;2023-05-20T13:26:26;7.50;;;3.23;;
71464;SDS011;59274;49.874;9.154;2023-05-20T13:28:51;7.63;;;3.53;;
71464;SDS011;59274;49.874;9.154;2023-05-20T13:31:17;6.40;;;2.90;;
71464;SDS011;59274;49.874;9.154;2023-05-20T13:33:42;7.70;;;3.23;;
71464;SDS011;59274;49.874;9.154;2023-05-20T13:36:08;6.45;;;3.22;;
71464;SDS011;59274;49.874;9.154;2023-05-20T13:38:34;8.05;;;3.50;;
71464;SDS011;59274;49.874;9.154;2023-05-20T13:40:59;6.93;;;3.70;;
71464;SDS011;59274;49.874;9.154;2023-05-20T13:43:25;6.70;;;3.20;;
71464;SDS011;59274;49.874;9.154;2023-05-20T13:45:51;6.72;;;3.63;;
71464;SDS011;59274;49.874;9.154;2023-05-20T13:48:17;6.00;;;3.30;;
71464;SDS011;59274;49.874;9.154;2023-05-20T13:50:42;6.55;;;3.30;;
71464;SDS011;59274;49.874;9.154;2023-05-20T13:53:08;5.87;;;3.53;;
71464;SDS011;59274;49.874;9.154;2023-05-20T13:55:37;7.28;;;3.72;;
71464;SDS011;59274;49.874;9.154;2023-05-20T13:58:02;7.33;;;3.57;;
71464;SDS011;59274;49.874;9.154;2023-05-20T14:00:29;7.50;;;3.80;;
71464;SDS011;59274;49.874;9.154;2023-05-20T14:02:55;7.00;;;3.50;;
71464;SDS011;59274;49.874;9.154;2023-05-20T14:05:21;6.80;;;3.83;;
71464;SDS011;59274;49.874;9.154;2023-05-20T14:07:47;7.13;;;3.60;;
71464;SDS011;59274;49.874;9.154;2023-05-20T14:10:12;6.43;;;3.50;;
71464;SDS011;59274;49.874;9.154;2023-05-20T14:12:38;6.17;;;3.23;;
71464;SDS011;59274;49.874;9.154;2023-05-20T14:15:03;6.22;;;3.10;;
71464;SDS011;59274;49.874;9.154;2023-05-20T14:17:29;7.43;;;3.80;;
71464;SDS011;59274;49.874;9.154;2023-05-20T14:19:55;7.10;;;3.17;;
71464;SDS011;59274;49.874;9.154;2023-05-20T14:22:20;7.43;;;3.50;;
71464;SDS011;59274;49.874;9.154;2023-05-20T14:24:46;7.00;;;4.03;;
71464;SDS011;59274;49.874;9.154;2023-05-20T14:27:11;8.73;;;3.70;;
71464;SDS011;59274;49.874;9.154;2023-05-20T14:29:38;5.32;;;2.85;;
71464;SDS011;59274;49.874;9.154;2023-05-20T14:32:03;7.45;;;3.65;;
71464;SDS011;59274;49.874;9.154;2023-05-20T14:34:29;7.37;;;3.70;;
71464;SDS011;59274;49.874;9.154;2023-05-20T14:36:55;6.63;;;2.90;;
71464;SDS011;59274;49.874;9.154;2023-05-20T14:39:21;8.67;;;3.30;;
71464;SDS011;59274;49.874;9.154;2023-05-20T14:41:46;6.50;;;3.40;;
71464;SDS011;59274;49.874;9.154;2023-05-20T14:44:11;7.40;;;3.13;;
71464;SDS011;59274;49.874;9.154;2023-05-20T14:46:37;7.97;;;3.53;;
71464;SDS011;59274;49.874;9.154;2023-05-20T14:49:03;7.47;;;3.83;;
71464;SDS011;59274;49.874;9.154;2023-05-20T14:51:28;6.40;;;3.40;;
71464;SDS011;59274;49.874;9.154;2023-05-20T14:53:53;6.67;;;3.23;;
71464;SDS011;59274;49.874;9.154;2023-05-20T14:56:19;6.63;;;3.70;;